Terminal Aerodrome Forecast
Issued by NWS

Home | Current Version | Previous Version | Text Only | Print | Product List | Glossary On
Versions: 1 2 3 4 5 6 7 8 9 10 11 12
000
FTUS42 TJSJ 270538
TAFJPS
TAF
TJPS 270538Z 2706/2806 06002KT P6SM FEW030
     FM271400 15010KT P6SM SCT030
     FM271700 17010KT P6SM VCSH SCT030 BKN050
     FM272100 VRB02KT P6SM SCT030
      AMD NOT SKED 2712/2803=

USA.gov is the U.S. government's official web portal to all federal, state and local government web resources and services.